sensor_id;sensor_type;location;lat;lon;timestamp;pressure;altitude;pressure_sealevel;temperature;humidity
46714;BME280;32445;51.376;10.874;2023-02-21T00:00:23;99496.28;;;10.46;59.26
46714;BME280;32445;51.376;10.874;2023-02-21T00:03:42;99505.00;;;10.44;59.35
46714;BME280;32445;51.376;10.874;2023-02-21T00:07:00;99486.03;;;10.40;59.68
46714;BME280;32445;51.376;10.874;2023-02-21T00:10:19;99483.44;;;10.40;59.81
46714;BME280;32445;51.376;10.874;2023-02-21T00:13:38;99492.94;;;10.41;59.60
46714;BME280;32445;51.376;10.874;2023-02-21T00:16:57;99491.31;;;10.37;59.91
46714;BME280;32445;51.376;10.874;2023-02-21T00:20:16;99498.31;;;10.35;60.41
46714;BME280;32445;51.376;10.874;2023-02-21T00:23:35;99491.44;;;10.31;60.72
46714;BME280;32445;51.376;10.874;2023-02-21T00:26:53;99494.03;;;10.31;60.74
46714;BME280;32445;51.376;10.874;2023-02-21T00:30:13;99494.03;;;10.31;60.37
46714;BME280;32445;51.376;10.874;2023-02-21T00:33:36;99495.75;;;10.32;60.37
46714;BME280;32445;51.376;10.874;2023-02-21T00:36:55;99495.81;;;10.30;60.52
46714;BME280;32445;51.376;10.874;2023-02-21T00:40:14;99486.38;;;10.26;60.97
46714;BME280;32445;51.376;10.874;2023-02-21T00:43:34;99486.31;;;10.29;60.85
46714;BME280;32445;51.376;10.874;2023-02-21T00:46:53;99482.88;;;10.27;60.84
46714;BME280;32445;51.376;10.874;2023-02-21T00:50:13;99487.22;;;10.27;61.01
46714;BME280;32445;51.376;10.874;2023-02-21T00:53:32;99477.69;;;10.29;61.54
46714;BME280;32445;51.376;10.874;2023-02-21T00:56:51;99481.88;;;10.34;60.80
46714;BME280;32445;51.376;10.874;2023-02-21T01:00:16;99481.91;;;10.31;61.10
46714;BME280;32445;51.376;10.874;2023-02-21T01:03:36;99487.06;;;10.33;60.86
46714;BME280;32445;51.376;10.874;2023-02-21T01:06:54;99481.16;;;10.28;60.89
46714;BME280;32445;51.376;10.874;2023-02-21T01:10:13;99494.88;;;10.31;61.27
46714;BME280;32445;51.376;10.874;2023-02-21T01:13:33;99484.56;;;10.30;60.99
46714;BME280;32445;51.376;10.874;2023-02-21T01:16:52;99483.66;;;10.31;60.91
46714;BME280;32445;51.376;10.874;2023-02-21T01:20:11;99494.00;;;10.32;61.64
46714;BME280;32445;51.376;10.874;2023-02-21T01:23:30;99481.03;;;10.32;61.06
46714;BME280;32445;51.376;10.874;2023-02-21T01:26:49;99487.09;;;10.31;61.62
46714;BME280;32445;51.376;10.874;2023-02-21T01:30:09;99488.84;;;10.31;61.33
46714;BME280;32445;51.376;10.874;2023-02-21T01:33:28;99485.38;;;10.32;61.09
46714;BME280;32445;51.376;10.874;2023-02-21T01:36:47;99485.38;;;10.32;61.47
46714;BME280;32445;51.376;10.874;2023-02-21T01:40:06;99487.84;;;10.38;61.18
46714;BME280;32445;51.376;10.874;2023-02-21T01:43:26;99499.06;;;10.38;60.79
46714;BME280;32445;51.376;10.874;2023-02-21T01:46:46;99486.88;;;10.42;61.10
46714;BME280;32445;51.376;10.874;2023-02-21T01:53:34;99491.09;;;10.46;60.90
46714;BME280;32445;51.376;10.874;2023-02-21T01:56:55;99480.75;;;10.45;61.09
46714;BME280;32445;51.376;10.874;2023-02-21T02:00:15;99485.88;;;10.48;60.90
46714;BME280;32445;51.376;10.874;2023-02-21T02:03:36;99476.31;;;10.48;60.96
46714;BME280;32445;51.376;10.874;2023-02-21T02:06:56;99477.94;;;10.52;60.89
46714;BME280;32445;51.376;10.874;2023-02-21T02:10:18;99473.59;;;10.54;60.83
46714;BME280;32445;51.376;10.874;2023-02-21T02:30:39;99487.88;;;10.69;60.68
46714;BME280;32445;51.376;10.874;2023-02-21T02:34:23;99482.69;;;10.69;60.67
46714;BME280;32445;51.376;10.874;2023-02-21T02:38:01;99481.84;;;10.69;60.42
46714;BME280;32445;51.376;10.874;2023-02-21T02:41:45;99481.84;;;10.69;60.56
46714;BME280;32445;51.376;10.874;2023-02-21T02:48:22;99479.97;;;10.74;60.19
46714;BME280;32445;51.376;10.874;2023-02-21T02:51:27;99471.38;;;10.72;60.52
46714;BME280;32445;51.376;10.874;2023-02-21T02:54:28;99467.97;;;10.70;61.01
46714;BME280;32445;51.376;10.874;2023-02-21T02:57:30;99471.38;;;10.72;60.77
46714;BME280;32445;51.376;10.874;2023-02-21T03:00:40;99476.53;;;10.73;60.44
46714;BME280;32445;51.376;10.874;2023-02-21T03:19:35;99469.44;;;10.79;60.39
46714;BME280;32445;51.376;10.874;2023-02-21T03:22:37;99457.38;;;10.78;60.61
46714;BME280;32445;51.376;10.874;2023-02-21T03:25:38;99456.47;;;10.79;60.70
46714;BME280;32445;51.376;10.874;2023-02-21T03:28:40;99454.78;;;10.78;60.29
46714;BME280;32445;51.376;10.874;2023-02-21T03:31:44;99472.00;;;10.80;60.57
46714;BME280;32445;51.376;10.874;2023-02-21T03:34:45;99448.63;;;10.80;60.49
46714;BME280;32445;51.376;10.874;2023-02-21T03:37:51;99443.50;;;10.79;60.63
46714;BME280;32445;51.376;10.874;2023-02-21T03:40:52;99446.13;;;10.77;60.31
46714;BME280;32445;51.376;10.874;2023-02-21T03:44:04;99434.13;;;10.75;61.01
46714;BME280;32445;51.376;10.874;2023-02-21T03:47:05;99439.16;;;10.79;60.50
46714;BME280;32445;51.376;10.874;2023-02-21T03:50:08;99436.56;;;10.79;60.36
46714;BME280;32445;51.376;10.874;2023-02-21T03:53:09;99442.66;;;10.78;60.68
46714;BME280;32445;51.376;10.874;2023-02-21T03:56:10;99428.88;;;10.76;60.61
46714;BME280;32445;51.376;10.874;2023-02-21T03:59:10;99439.25;;;10.76;60.72
46714;BME280;32445;51.376;10.874;2023-02-21T04:02:11;99429.75;;;10.75;60.29
46714;BME280;32445;51.376;10.874;2023-02-21T04:05:11;99429.81;;;10.73;60.80
46714;BME280;32445;51.376;10.874;2023-02-21T04:08:11;99430.59;;;10.76;60.39
46714;BME280;32445;51.376;10.874;2023-02-21T04:11:12;99428.81;;;10.78;60.71
46714;BME280;32445;51.376;10.874;2023-02-21T04:14:15;99421.78;;;10.81;60.94
46714;BME280;32445;51.376;10.874;2023-02-21T04:17:15;99426.94;;;10.83;60.52
46714;BME280;32445;51.376;10.874;2023-02-21T04:20:16;99421.78;;;10.81;60.72
46714;BME280;32445;51.376;10.874;2023-02-21T04:23:18;99420.13;;;10.79;60.98
46714;BME280;32445;51.376;10.874;2023-02-21T04:26:18;99421.09;;;10.76;60.80
46714;BME280;32445;51.376;10.874;2023-02-21T04:29:19;99418.50;;;10.76;60.97
46714;BME280;32445;51.376;10.874;2023-02-21T04:32:19;99415.94;;;10.73;60.81
46714;BME280;32445;51.376;10.874;2023-02-21T04:35:19;99415.03;;;10.76;60.80
46714;BME280;32445;51.376;10.874;2023-02-21T04:38:20;99405.50;;;10.76;61.20
46714;BME280;32445;51.376;10.874;2023-02-21T04:41:20;99402.03;;;10.76;61.18
46714;BME280;32445;51.376;10.874;2023-02-21T04:44:21;99406.44;;;10.73;60.93
46714;BME280;32445;51.376;10.874;2023-02-21T04:47:21;99408.22;;;10.71;60.94
46714;BME280;32445;51.376;10.874;2023-02-21T04:50:21;99400.47;;;10.70;61.05
46714;BME280;32445;51.376;10.874;2023-02-21T04:53:22;99400.47;;;10.70;61.29
46714;BME280;32445;51.376;10.874;2023-02-21T04:56:24;99401.34;;;10.70;60.99
46714;BME280;32445;51.376;10.874;2023-02-21T04:59:26;99394.44;;;10.69;61.03
46714;BME280;32445;51.376;10.874;2023-02-21T05:02:27;99394.25;;;10.76;60.71
46714;BME280;32445;51.376;10.874;2023-02-21T05:05:27;99395.13;;;10.76;60.74
46714;BME280;32445;51.376;10.874;2023-02-21T05:08:27;99396.00;;;10.75;60.31
46714;BME280;32445;51.376;10.874;2023-02-21T05:11:32;99399.53;;;10.72;60.98
46714;BME280;32445;51.376;10.874;2023-02-21T05:14:33;99394.28;;;10.74;60.61
46714;BME280;32445;51.376;10.874;2023-02-21T05:17:34;99394.28;;;10.74;60.63
46714;BME280;32445;51.376;10.874;2023-02-21T05:20:34;99396.06;;;10.73;61.03
46714;BME280;32445;51.376;10.874;2023-02-21T05:23:34;99396.91;;;10.74;60.74
46714;BME280;32445;51.376;10.874;2023-02-21T05:26:36;99390.91;;;10.72;60.82
46714;BME280;32445;51.376;10.874;2023-02-21T05:29:37;99390.09;;;10.70;61.13
46714;BME280;32445;51.376;10.874;2023-02-21T05:32:37;99396.09;;;10.72;61.09
46714;BME280;32445;51.376;10.874;2023-02-21T05:35:38;99401.28;;;10.72;61.20
46714;BME280;32445;51.376;10.874;2023-02-21T05:38:49;99401.34;;;10.70;61.17
46714;BME280;32445;51.376;10.874;2023-02-21T05:41:50;99403.88;;;10.72;61.13
46714;BME280;32445;51.376;10.874;2023-02-21T05:44:51;99397.00;;;10.71;61.25
46714;BME280;32445;51.376;10.874;2023-02-21T05:47:51;99410.00;;;10.69;61.81
46714;BME280;32445;51.376;10.874;2023-02-21T05:50:55;99406.59;;;10.67;61.37
46714;BME280;32445;51.376;10.874;2023-02-21T05:53:55;99410.09;;;10.66;61.19
46714;BME280;32445;51.376;10.874;2023-02-21T05:56:56;99413.50;;;10.68;61.42
46714;BME280;32445;51.376;10.874;2023-02-21T05:59:56;99423.78;;;10.71;61.09
46714;BME280;32445;51.376;10.874;2023-02-21T06:02:56;99422.91;;;10.72;61.43
46714;BME280;32445;51.376;10.874;2023-02-21T06:05:57;99420.22;;;10.76;61.38
46714;BME280;32445;51.376;10.874;2023-02-21T06:08:57;99421.09;;;10.76;61.15
46714;BME280;32445;51.376;10.874;2023-02-21T06:11:58;99426.34;;;10.73;61.89
46714;BME280;32445;51.376;10.874;2023-02-21T06:14:58;99428.09;;;10.72;61.63
46714;BME280;32445;51.376;10.874;2023-02-21T06:17:58;99430.63;;;10.74;61.47
46714;BME280;32445;51.376;10.874;2023-02-21T06:20:59;99443.56;;;10.76;61.45
46714;BME280;32445;51.376;10.874;2023-02-21T06:23:59;99442.59;;;10.80;60.97
46714;BME280;32445;51.376;10.874;2023-02-21T06:27:07;99447.00;;;10.78;60.96
46714;BME280;32445;51.376;10.874;2023-02-21T06:30:11;99440.00;;;10.80;61.16
46714;BME280;32445;51.376;10.874;2023-02-21T06:33:11;99440.69;;;10.86;60.37
46714;BME280;32445;51.376;10.874;2023-02-21T06:36:16;99445.88;;;10.86;60.91
46714;BME280;32445;51.376;10.874;2023-02-21T06:39:17;99451.09;;;10.86;61.26
46714;BME280;32445;51.376;10.874;2023-02-21T06:42:17;99446.63;;;10.90;60.65
46714;BME280;32445;51.376;10.874;2023-02-21T06:45:18;99456.13;;;10.91;60.40
46714;BME280;32445;51.376;10.874;2023-02-21T06:48:18;99465.69;;;10.90;60.29
46714;BME280;32445;51.376;10.874;2023-02-21T06:51:19;99459.56;;;10.91;60.08
46714;BME280;32445;51.376;10.874;2023-02-21T06:54:19;99463.03;;;10.92;60.48
46714;BME280;32445;51.376;10.874;2023-02-21T06:57:20;99466.53;;;10.91;60.04
46714;BME280;32445;51.376;10.874;2023-02-21T07:00:21;99469.13;;;10.91;60.21
46714;BME280;32445;51.376;10.874;2023-02-21T07:03:21;99473.44;;;10.92;60.26
46714;BME280;32445;51.376;10.874;2023-02-21T07:06:22;99482.94;;;10.91;60.26
46714;BME280;32445;51.376;10.874;2023-02-21T07:09:23;99484.63;;;10.94;59.95
46714;BME280;32445;51.376;10.874;2023-02-21T07:12:23;99486.38;;;10.94;59.81
46714;BME280;32445;51.376;10.874;2023-02-21T07:15:23;99487.22;;;10.94;59.77
46714;BME280;32445;51.376;10.874;2023-02-21T07:18:24;99496.66;;;10.97;60.08
46714;BME280;32445;51.376;10.874;2023-02-21T07:21:25;99496.53;;;11.01;59.64
46714;BME280;32445;51.376;10.874;2023-02-21T07:24:26;99500.72;;;11.07;59.60
46714;BME280;32445;51.376;10.874;2023-02-21T07:27:26;99505.75;;;11.12;59.83
46714;BME280;32445;51.376;10.874;2023-02-21T07:30:26;99509.97;;;11.16;59.67
46714;BME280;32445;51.376;10.874;2023-02-21T07:33:27;99515.13;;;11.17;59.60
46714;BME280;32445;51.376;10.874;2023-02-21T07:36:27;99516.78;;;11.20;59.64
46714;BME280;32445;51.376;10.874;2023-02-21T07:39:27;99521.84;;;11.24;59.22
46714;BME280;32445;51.376;10.874;2023-02-21T07:42:28;99520.91;;;11.27;59.33
46714;BME280;32445;51.376;10.874;2023-02-21T07:45:28;99529.44;;;11.32;59.43
46714;BME280;32445;51.376;10.874;2023-02-21T07:48:29;99527.69;;;11.33;59.38
46714;BME280;32445;51.376;10.874;2023-02-21T07:51:29;99527.59;;;11.36;58.92
46714;BME280;32445;51.376;10.874;2023-02-21T07:54:30;99531.91;;;11.37;58.74
46714;BME280;32445;51.376;10.874;2023-02-21T07:57:30;99525.91;;;11.35;58.89
46714;BME280;32445;51.376;10.874;2023-02-21T08:00:31;99526.91;;;11.31;58.72
46714;BME280;32445;51.376;10.874;2023-02-21T08:03:31;99536.47;;;11.29;58.89
46714;BME280;32445;51.376;10.874;2023-02-21T08:06:33;99534.78;;;11.28;59.37
46714;BME280;32445;51.376;10.874;2023-02-21T08:09:35;99546.03;;;11.28;59.35
46714;BME280;32445;51.376;10.874;2023-02-21T08:12:35;99551.19;;;11.30;59.14
46714;BME280;32445;51.376;10.874;2023-02-21T08:15:36;99550.28;;;11.31;59.12
46714;BME280;32445;51.376;10.874;2023-02-21T08:18:36;99552.78;;;11.34;59.40
46714;BME280;32445;51.376;10.874;2023-02-21T08:21:37;99563.09;;;11.37;58.71
46714;BME280;32445;51.376;10.874;2023-02-21T08:24:37;99565.66;;;11.38;59.06
46714;BME280;32445;51.376;10.874;2023-02-21T08:27:39;99559.44;;;11.44;59.01
46714;BME280;32445;51.376;10.874;2023-02-21T08:30:40;99570.63;;;11.46;58.68
46714;BME280;32445;51.376;10.874;2023-02-21T08:33:40;99575.72;;;11.51;58.65
46714;BME280;32445;51.376;10.874;2023-02-21T08:36:42;99566.16;;;11.51;58.77
46714;BME280;32445;51.376;10.874;2023-02-21T08:39:46;99571.09;;;11.59;58.27
46714;BME280;32445;51.376;10.874;2023-02-21T08:42:51;99570.22;;;11.60;58.29
46714;BME280;32445;51.376;10.874;2023-02-21T08:45:51;99559.78;;;11.62;58.48
46714;BME280;32445;51.376;10.874;2023-02-21T08:48:52;99565.75;;;11.65;58.29
46714;BME280;32445;51.376;10.874;2023-02-21T08:51:52;99567.44;;;11.66;58.36
46714;BME280;32445;51.376;10.874;2023-02-21T08:54:54;99561.28;;;11.69;58.29
46714;BME280;32445;51.376;10.874;2023-02-21T08:57:54;99560.50;;;11.67;58.08
46714;BME280;32445;51.376;10.874;2023-02-21T09:00:54;99570.00;;;11.68;58.54
46714;BME280;32445;51.376;10.874;2023-02-21T09:03:55;99572.63;;;11.68;58.36
46714;BME280;32445;51.376;10.874;2023-02-21T09:06:55;99565.66;;;11.68;58.39
46714;BME280;32445;51.376;10.874;2023-02-21T09:09:56;99562.97;;;11.71;58.23
46714;BME280;32445;51.376;10.874;2023-02-21T09:12:56;99561.19;;;11.73;58.42
46714;BME280;32445;51.376;10.874;2023-02-21T09:15:56;99548.97;;;11.75;58.18
46714;BME280;32445;51.376;10.874;2023-02-21T09:18:58;99552.38;;;11.77;58.13
46714;BME280;32445;51.376;10.874;2023-02-21T09:22:00;99542.94;;;11.75;58.41
46714;BME280;32445;51.376;10.874;2023-02-21T09:25:02;99545.44;;;11.78;57.98
46714;BME280;32445;51.376;10.874;2023-02-21T09:28:03;99548.03;;;11.78;58.59
46714;BME280;32445;51.376;10.874;2023-02-21T09:31:03;99549.59;;;11.84;57.76
46714;BME280;32445;51.376;10.874;2023-02-21T09:34:04;99551.31;;;11.83;58.39
46714;BME280;32445;51.376;10.874;2023-02-21T09:37:04;99554.56;;;11.91;58.44
46714;BME280;32445;51.376;10.874;2023-02-21T09:43:21;99549.13;;;11.99;58.16
46714;BME280;32445;51.376;10.874;2023-02-21T09:49:40;99547.97;;;12.09;57.64
46714;BME280;32445;51.376;10.874;2023-02-21T09:52:41;99556.50;;;12.13;57.91
46714;BME280;32445;51.376;10.874;2023-02-21T09:55:41;99564.38;;;12.11;57.69
46714;BME280;32445;51.376;10.874;2023-02-21T09:58:43;99566.13;;;12.11;57.49
46714;BME280;32445;51.376;10.874;2023-02-21T10:05:14;99563.44;;;12.14;57.55
46714;BME280;32445;51.376;10.874;2023-02-21T10:12:02;99558.75;;;12.25;57.06
46714;BME280;32445;51.376;10.874;2023-02-21T10:15:16;99569.94;;;12.27;57.39
46714;BME280;32445;51.376;10.874;2023-02-21T10:18:38;99561.34;;;12.25;57.06
46714;BME280;32445;51.376;10.874;2023-02-21T10:21:41;99560.28;;;12.31;57.08
46714;BME280;32445;51.376;10.874;2023-02-21T10:24:44;99574.97;;;12.34;57.02
46714;BME280;32445;51.376;10.874;2023-02-21T10:27:44;99567.16;;;12.34;56.95
46714;BME280;32445;51.376;10.874;2023-02-21T10:30:47;99570.59;;;12.34;56.94
46714;BME280;32445;51.376;10.874;2023-02-21T10:33:48;99571.44;;;12.35;57.27
46714;BME280;32445;51.376;10.874;2023-02-21T10:36:49;99575.66;;;12.39;57.13
46714;BME280;32445;51.376;10.874;2023-02-21T10:43:18;99566.78;;;12.44;56.40
46714;BME280;32445;51.376;10.874;2023-02-21T10:46:34;99559.03;;;12.43;56.73
46714;BME280;32445;51.376;10.874;2023-02-21T10:49:44;99564.19;;;12.44;56.43
46714;BME280;32445;51.376;10.874;2023-02-21T10:52:48;99569.09;;;12.54;56.20
46714;BME280;32445;51.376;10.874;2023-02-21T10:59:06;99569.06;;;12.55;56.19
46714;BME280;32445;51.376;10.874;2023-02-21T11:02:29;99571.56;;;12.58;56.10
46714;BME280;32445;51.376;10.874;2023-02-21T11:05:31;99567.84;;;12.66;56.29
46714;BME280;32445;51.376;10.874;2023-02-21T11:08:39;99578.16;;;12.69;56.13
46714;BME280;32445;51.376;10.874;2023-02-21T11:11:41;99569.53;;;12.67;55.57
46714;BME280;32445;51.376;10.874;2023-02-21T11:14:45;99569.44;;;12.70;55.87
46714;BME280;32445;51.376;10.874;2023-02-21T11:18:10;99564.00;;;12.76;55.92
46714;BME280;32445;51.376;10.874;2023-02-21T11:21:14;99562.91;;;12.83;55.87
46714;BME280;32445;51.376;10.874;2023-02-21T11:24:15;99549.72;;;12.88;55.92
46714;BME280;32445;51.376;10.874;2023-02-21T11:27:16;99554.03;;;12.89;55.40
46714;BME280;32445;51.376;10.874;2023-02-21T11:30:20;99544.56;;;12.86;55.39
46714;BME280;32445;51.376;10.874;2023-02-21T11:33:21;99548.81;;;12.89;55.78
46714;BME280;32445;51.376;10.874;2023-02-21T11:36:27;99543.31;;;12.96;55.56
46714;BME280;32445;51.376;10.874;2023-02-21T11:39:32;99541.34;;;13.03;55.23
46714;BME280;32445;51.376;10.874;2023-02-21T11:42:33;99541.34;;;13.03;55.22
46714;BME280;32445;51.376;10.874;2023-02-21T11:45:35;99543.91;;;13.05;55.52
46714;BME280;32445;51.376;10.874;2023-02-21T11:52:14;99533.03;;;13.17;55.24
46714;BME280;32445;51.376;10.874;2023-02-21T11:55:22;99530.31;;;13.20;54.90
46714;BME280;32445;51.376;10.874;2023-02-21T11:58:33;99526.72;;;13.24;54.67
46714;BME280;32445;51.376;10.874;2023-02-21T12:02:13;99527.59;;;13.23;54.78
46714;BME280;32445;51.376;10.874;2023-02-21T12:11:51;99529.00;;;13.32;54.53
46714;BME280;32445;51.376;10.874;2023-02-21T12:15:08;99530.63;;;13.36;54.07
46714;BME280;32445;51.376;10.874;2023-02-21T12:35:28;99510.63;;;13.60;52.88
46714;BME280;32445;51.376;10.874;2023-02-21T12:38:39;99504.19;;;13.69;52.82
46714;BME280;32445;51.376;10.874;2023-02-21T12:49:12;99511.91;;;13.94;52.31
46714;BME280;32445;51.376;10.874;2023-02-21T12:52:18;99512.41;;;14.04;52.23
46714;BME280;32445;51.376;10.874;2023-02-21T12:55:23;99501.97;;;14.02;51.11
46714;BME280;32445;51.376;10.874;2023-02-21T12:58:31;99496.78;;;14.02;51.48
46714;BME280;32445;51.376;10.874;2023-02-21T13:01:39;99496.59;;;14.07;51.50
46714;BME280;32445;51.376;10.874;2023-02-21T13:05:15;99497.13;;;14.15;51.39
46714;BME280;32445;51.376;10.874;2023-02-21T13:08:21;99496.16;;;14.18;51.36
46714;BME280;32445;51.376;10.874;2023-02-21T13:14:59;99490.69;;;14.24;50.84
46714;BME280;32445;51.376;10.874;2023-02-21T13:18:06;99484.53;;;14.25;50.83
46714;BME280;32445;51.376;10.874;2023-02-21T13:24:55;99487.00;;;14.28;51.09
46714;BME280;32445;51.376;10.874;2023-02-21T13:31:22;99477.56;;;14.26;50.35
46714;BME280;32445;51.376;10.874;2023-02-21T13:34:26;99468.25;;;14.20;50.64
46714;BME280;32445;51.376;10.874;2023-02-21T13:37:29;99469.13;;;14.19;50.44
46714;BME280;32445;51.376;10.874;2023-02-21T13:40:34;99459.59;;;14.18;50.80
46714;BME280;32445;51.376;10.874;2023-02-21T13:43:44;99461.19;;;14.22;50.72
46714;BME280;32445;51.376;10.874;2023-02-21T13:49:55;99464.69;;;14.21;51.21
46714;BME280;32445;51.376;10.874;2023-02-21T14:02:28;99460.84;;;14.30;50.70
46714;BME280;32445;51.376;10.874;2023-02-21T14:08:53;99457.84;;;14.39;50.61
46714;BME280;32445;51.376;10.874;2023-02-21T14:12:00;99458.75;;;14.38;50.03
46714;BME280;32445;51.376;10.874;2023-02-21T14:15:06;99457.13;;;14.35;49.87
46714;BME280;32445;51.376;10.874;2023-02-21T14:18:15;99455.59;;;14.31;50.03
46714;BME280;32445;51.376;10.874;2023-02-21T14:21:34;99459.38;;;14.24;50.17
46714;BME280;32445;51.376;10.874;2023-02-21T14:24:38;99462.69;;;14.28;50.33
46714;BME280;32445;51.376;10.874;2023-02-21T14:27:39;99457.38;;;14.29;50.39
46714;BME280;32445;51.376;10.874;2023-02-21T14:30:39;99459.09;;;14.30;50.93
46714;BME280;32445;51.376;10.874;2023-02-21T14:33:41;99457.25;;;14.32;50.64
46714;BME280;32445;51.376;10.874;2023-02-21T14:36:42;99459.88;;;14.32;50.56
46714;BME280;32445;51.376;10.874;2023-02-21T14:39:51;99467.13;;;14.26;50.35
46714;BME280;32445;51.376;10.874;2023-02-21T14:49:29;99464.75;;;14.19;50.69
46714;BME280;32445;51.376;10.874;2023-02-21T14:52:49;99463.84;;;14.21;51.07
46714;BME280;32445;51.376;10.874;2023-02-21T14:59:36;99456.94;;;14.19;51.08
46714;BME280;32445;51.376;10.874;2023-02-21T15:02:45;99455.88;;;14.24;51.24
46714;BME280;32445;51.376;10.874;2023-02-21T15:09:11;99454.16;;;14.24;51.25
46714;BME280;32445;51.376;10.874;2023-02-21T15:12:16;99453.13;;;14.27;51.35
46714;BME280;32445;51.376;10.874;2023-02-21T15:15:25;99456.22;;;14.16;51.21
46714;BME280;32445;51.376;10.874;2023-02-21T15:18:32;99453.91;;;14.08;51.27
46714;BME280;32445;51.376;10.874;2023-02-21T15:21:33;99456.97;;;13.97;51.52
46714;BME280;32445;51.376;10.874;2023-02-21T15:24:34;99462.25;;;13.96;51.85
46714;BME280;32445;51.376;10.874;2023-02-21T15:27:52;99458.41;;;13.84;51.96
46714;BME280;32445;51.376;10.874;2023-02-21T15:31:00;99451.69;;;13.77;52.71
46714;BME280;32445;51.376;10.874;2023-02-21T15:34:01;99450.16;;;13.73;52.52
46714;BME280;32445;51.376;10.874;2023-02-21T15:37:23;99452.22;;;13.64;52.64
46714;BME280;32445;51.376;10.874;2023-02-21T15:40:30;99453.16;;;13.62;52.74
46714;BME280;32445;51.376;10.874;2023-02-21T15:43:56;99450.56;;;13.62;52.81
46714;BME280;32445;51.376;10.874;2023-02-21T15:47:03;99455.09;;;13.57;52.56
46714;BME280;32445;51.376;10.874;2023-02-21T15:50:15;99457.50;;;13.63;52.83
46714;BME280;32445;51.376;10.874;2023-02-21T15:53:24;99457.22;;;13.69;52.83
46714;BME280;32445;51.376;10.874;2023-02-21T15:56:24;99460.88;;;13.65;52.65
46714;BME280;32445;51.376;10.874;2023-02-21T15:59:29;99465.19;;;13.66;52.51
46714;BME280;32445;51.376;10.874;2023-02-21T16:02:29;99466.09;;;13.65;52.85
46714;BME280;32445;51.376;10.874;2023-02-21T16:05:29;99464.16;;;13.70;52.94
46714;BME280;32445;51.376;10.874;2023-02-21T16:08:30;99467.59;;;13.71;52.45
46714;BME280;32445;51.376;10.874;2023-02-21T16:11:44;99470.28;;;13.69;52.40
46714;BME280;32445;51.376;10.874;2023-02-21T16:14:54;99472.75;;;13.72;52.42
46714;BME280;32445;51.376;10.874;2023-02-21T16:17:57;99469.13;;;13.76;52.54
46714;BME280;32445;51.376;10.874;2023-02-21T16:21:02;99470.22;;;13.71;52.40
46714;BME280;32445;51.376;10.874;2023-02-21T16:24:21;99467.72;;;13.67;52.41
46714;BME280;32445;51.376;10.874;2023-02-21T16:27:26;99470.97;;;13.74;52.46
46714;BME280;32445;51.376;10.874;2023-02-21T16:30:28;99482.91;;;13.80;52.47
46714;BME280;32445;51.376;10.874;2023-02-21T16:33:30;99471.66;;;13.78;52.33
46714;BME280;32445;51.376;10.874;2023-02-21T16:36:31;99476.31;;;13.71;52.71
46714;BME280;32445;51.376;10.874;2023-02-21T16:39:32;99470.28;;;13.69;52.85
46714;BME280;32445;51.376;10.874;2023-02-21T16:42:32;99468.69;;;13.65;53.02
46714;BME280;32445;51.376;10.874;2023-02-21T16:45:33;99473.13;;;13.63;52.85
46714;BME280;32445;51.376;10.874;2023-02-21T16:48:33;99481.03;;;13.61;53.30
46714;BME280;32445;51.376;10.874;2023-02-21T16:51:33;99481.97;;;13.59;53.45
46714;BME280;32445;51.376;10.874;2023-02-21T16:54:35;99485.56;;;13.56;53.22
46714;BME280;32445;51.376;10.874;2023-02-21T16:57:35;99485.56;;;13.56;53.54
46714;BME280;32445;51.376;10.874;2023-02-21T17:00:35;99487.44;;;13.53;53.20
46714;BME280;32445;51.376;10.874;2023-02-21T17:03:36;99494.41;;;13.52;53.53
46714;BME280;32445;51.376;10.874;2023-02-21T17:06:36;99495.41;;;13.48;53.66
46714;BME280;32445;51.376;10.874;2023-02-21T17:09:37;99492.88;;;13.46;53.27
46714;BME280;32445;51.376;10.874;2023-02-21T17:12:38;99501.66;;;13.44;53.36
46714;BME280;32445;51.376;10.874;2023-02-21T17:15:41;99500.09;;;13.40;53.82
46714;BME280;32445;51.376;10.874;2023-02-21T17:18:42;99501.00;;;13.39;53.88
46714;BME280;32445;51.376;10.874;2023-02-21T17:21:44;99509.66;;;13.39;53.59
46714;BME280;32445;51.376;10.874;2023-02-21T17:24:45;99511.44;;;13.39;53.50
46714;BME280;32445;51.376;10.874;2023-02-21T17:27:45;99508.06;;;13.35;53.43
46714;BME280;32445;51.376;10.874;2023-02-21T17:30:46;99515.91;;;13.33;53.43
46714;BME280;32445;51.376;10.874;2023-02-21T17:33:46;99508.97;;;13.34;53.22
46714;BME280;32445;51.376;10.874;2023-02-21T17:36:48;99512.47;;;13.33;53.63
46714;BME280;32445;51.376;10.874;2023-02-21T17:39:56;99518.53;;;13.33;53.54
46714;BME280;32445;51.376;10.874;2023-02-21T17:42:59;99512.44;;;13.35;53.39
46714;BME280;32445;51.376;10.874;2023-02-21T17:46:03;99516.78;;;13.34;53.37
46714;BME280;32445;51.376;10.874;2023-02-21T17:49:04;99512.44;;;13.35;53.19
46714;BME280;32445;51.376;10.874;2023-02-21T17:52:05;99511.56;;;13.34;53.02
46714;BME280;32445;51.376;10.874;2023-02-21T17:55:15;99515.97;;;13.32;52.96
46714;BME280;32445;51.376;10.874;2023-02-21T17:58:16;99520.34;;;13.31;52.94
46714;BME280;32445;51.376;10.874;2023-02-21T18:01:17;99519.53;;;13.29;52.76
46714;BME280;32445;51.376;10.874;2023-02-21T18:04:20;99523.09;;;13.28;53.03
46714;BME280;32445;51.376;10.874;2023-02-21T18:10:54;99525.13;;;13.20;52.61
46714;BME280;32445;51.376;10.874;2023-02-21T18:13:55;99527.72;;;13.20;52.64
46714;BME280;32445;51.376;10.874;2023-02-21T18:17:27;99533.03;;;13.17;52.70
46714;BME280;32445;51.376;10.874;2023-02-21T18:20:40;99529.63;;;13.15;52.67
46714;BME280;32445;51.376;10.874;2023-02-21T18:23:48;99537.38;;;13.16;52.76
46714;BME280;32445;51.376;10.874;2023-02-21T18:26:51;99531.47;;;13.13;52.61
46714;BME280;32445;51.376;10.874;2023-02-21T18:29:51;99541.06;;;13.11;52.35